sensor_id;sensor_type;location;lat;lon;timestamp;temperature;humidity
16229;DHT22;8222;51.462;12.630;2023-08-08T00:00:28;14.60;99.90
16229;DHT22;8222;51.462;12.630;2023-08-08T00:02:56;14.50;99.90
16229;DHT22;8222;51.462;12.630;2023-08-08T00:05:22;14.60;99.90
16229;DHT22;8222;51.462;12.630;2023-08-08T00:07:52;14.50;99.90
16229;DHT22;8222;51.462;12.630;2023-08-08T00:10:17;14.40;99.90
16229;DHT22;8222;51.462;12.630;2023-08-08T00:12:43;14.40;99.90
16229;DHT22;8222;51.462;12.630;2023-08-08T00:15:09;14.40;99.90
16229;DHT22;8222;51.462;12.630;2023-08-08T00:17:35;14.30;99.90
16229;DHT22;8222;51.462;12.630;2023-08-08T00:20:04;14.60;99.90
16229;DHT22;8222;51.462;12.630;2023-08-08T00:22:29;14.30;99.90
16229;DHT22;8222;51.462;12.630;2023-08-08T00:24:55;14.40;99.90
16229;DHT22;8222;51.462;12.630;2023-08-08T00:27:21;14.30;99.90
16229;DHT22;8222;51.462;12.630;2023-08-08T00:29:48;14.30;99.90
16229;DHT22;8222;51.462;12.630;2023-08-08T00:32:18;14.20;99.90
16229;DHT22;8222;51.462;12.630;2023-08-08T00:34:46;14.20;99.90
16229;DHT22;8222;51.462;12.630;2023-08-08T00:37:17;14.10;99.90
16229;DHT22;8222;51.462;12.630;2023-08-08T00:39:42;14.00;99.90
16229;DHT22;8222;51.462;12.630;2023-08-08T00:42:12;14.10;99.90
16229;DHT22;8222;51.462;12.630;2023-08-08T00:44:37;14.10;99.90
16229;DHT22;8222;51.462;12.630;2023-08-08T00:47:04;14.00;99.90
16229;DHT22;8222;51.462;12.630;2023-08-08T00:49:32;14.00;99.90
16229;DHT22;8222;51.462;12.630;2023-08-08T00:51:58;14.10;99.90
16229;DHT22;8222;51.462;12.630;2023-08-08T00:54:24;14.10;99.90
16229;DHT22;8222;51.462;12.630;2023-08-08T00:56:54;14.10;99.90
16229;DHT22;8222;51.462;12.630;2023-08-08T00:59:23;14.20;99.90
16229;DHT22;8222;51.462;12.630;2023-08-08T01:02:09;14.10;99.90
16229;DHT22;8222;51.462;12.630;2023-08-08T01:04:40;14.00;99.90
16229;DHT22;8222;51.462;12.630;2023-08-08T01:12:35;13.90;99.90
16229;DHT22;8222;51.462;12.630;2023-08-08T01:15:04;13.90;99.90
16229;DHT22;8222;51.462;12.630;2023-08-08T01:17:35;13.80;99.90
16229;DHT22;8222;51.462;12.630;2023-08-08T01:20:05;13.80;99.90
16229;DHT22;8222;51.462;12.630;2023-08-08T01:23:44;13.80;99.90
16229;DHT22;8222;51.462;12.630;2023-08-08T01:25:52;13.90;99.90
16229;DHT22;8222;51.462;12.630;2023-08-08T01:28:21;13.80;99.90
16229;DHT22;8222;51.462;12.630;2023-08-08T01:30:48;13.90;99.90
16229;DHT22;8222;51.462;12.630;2023-08-08T01:33:13;13.90;99.90
16229;DHT22;8222;51.462;12.630;2023-08-08T01:35:45;13.80;99.90
16229;DHT22;8222;51.462;12.630;2023-08-08T01:38:17;13.70;99.90
16229;DHT22;8222;51.462;12.630;2023-08-08T01:40:47;13.70;99.90
16229;DHT22;8222;51.462;12.630;2023-08-08T01:43:14;13.70;99.90
16229;DHT22;8222;51.462;12.630;2023-08-08T01:45:41;13.70;99.90
16229;DHT22;8222;51.462;12.630;2023-08-08T01:48:13;13.60;99.90
16229;DHT22;8222;51.462;12.630;2023-08-08T01:50:39;13.60;99.90
16229;DHT22;8222;51.462;12.630;2023-08-08T01:53:09;13.60;99.90
16229;DHT22;8222;51.462;12.630;2023-08-08T01:55:37;13.50;99.90
16229;DHT22;8222;51.462;12.630;2023-08-08T01:58:05;13.50;99.90
16229;DHT22;8222;51.462;12.630;2023-08-08T02:00:33;13.60;99.90
16229;DHT22;8222;51.462;12.630;2023-08-08T02:03:01;13.60;99.90
16229;DHT22;8222;51.462;12.630;2023-08-08T02:05:29;13.60;99.90
16229;DHT22;8222;51.462;12.630;2023-08-08T02:08:02;13.60;99.90
16229;DHT22;8222;51.462;12.630;2023-08-08T02:10:28;13.60;99.90
16229;DHT22;8222;51.462;12.630;2023-08-08T02:12:59;13.50;99.90
16229;DHT22;8222;51.462;12.630;2023-08-08T02:15:27;13.60;99.90
16229;DHT22;8222;51.462;12.630;2023-08-08T02:17:53;13.60;99.90
16229;DHT22;8222;51.462;12.630;2023-08-08T02:20:18;13.50;99.90
16229;DHT22;8222;51.462;12.630;2023-08-08T02:22:44;13.50;99.90
16229;DHT22;8222;51.462;12.630;2023-08-08T02:25:10;13.50;99.90
16229;DHT22;8222;51.462;12.630;2023-08-08T02:27:36;13.50;99.90
16229;DHT22;8222;51.462;12.630;2023-08-08T02:30:03;13.40;99.90
16229;DHT22;8222;51.462;12.630;2023-08-08T02:32:32;13.40;99.90
16229;DHT22;8222;51.462;12.630;2023-08-08T02:35:02;13.30;99.90
16229;DHT22;8222;51.462;12.630;2023-08-08T02:37:28;13.30;99.90
16229;DHT22;8222;51.462;12.630;2023-08-08T02:39:54;13.20;99.90
16229;DHT22;8222;51.462;12.630;2023-08-08T02:42:21;13.20;99.90
16229;DHT22;8222;51.462;12.630;2023-08-08T02:44:49;13.20;99.90
16229;DHT22;8222;51.462;12.630;2023-08-08T02:47:15;13.20;99.90
16229;DHT22;8222;51.462;12.630;2023-08-08T02:49:41;13.20;99.90
16229;DHT22;8222;51.462;12.630;2023-08-08T02:52:07;13.10;99.90
16229;DHT22;8222;51.462;12.630;2023-08-08T02:54:32;13.20;99.90
16229;DHT22;8222;51.462;12.630;2023-08-08T02:56:58;13.20;99.90
16229;DHT22;8222;51.462;12.630;2023-08-08T02:59:28;13.20;99.90
16229;DHT22;8222;51.462;12.630;2023-08-08T03:01:54;13.20;99.90
16229;DHT22;8222;51.462;12.630;2023-08-08T03:04:22;13.20;99.90
16229;DHT22;8222;51.462;12.630;2023-08-08T03:06:51;13.10;99.90
16229;DHT22;8222;51.462;12.630;2023-08-08T03:09:16;13.20;99.90
16229;DHT22;8222;51.462;12.630;2023-08-08T03:11:42;13.20;99.90
16229;DHT22;8222;51.462;12.630;2023-08-08T03:14:08;13.20;99.90
16229;DHT22;8222;51.462;12.630;2023-08-08T03:16:36;13.30;99.90
16229;DHT22;8222;51.462;12.630;2023-08-08T03:19:05;13.30;99.90
16229;DHT22;8222;51.462;12.630;2023-08-08T03:21:31;13.30;99.90
16229;DHT22;8222;51.462;12.630;2023-08-08T03:23:59;13.20;99.90
16229;DHT22;8222;51.462;12.630;2023-08-08T03:26:25;13.30;99.90
16229;DHT22;8222;51.462;12.630;2023-08-08T03:28:53;13.40;99.90
16229;DHT22;8222;51.462;12.630;2023-08-08T03:31:20;13.50;99.90
16229;DHT22;8222;51.462;12.630;2023-08-08T03:33:46;13.50;99.90
16229;DHT22;8222;51.462;12.630;2023-08-08T03:36:15;13.40;99.90
16229;DHT22;8222;51.462;12.630;2023-08-08T03:38:46;13.40;99.90
16229;DHT22;8222;51.462;12.630;2023-08-08T03:41:14;13.40;99.90
16229;DHT22;8222;51.462;12.630;2023-08-08T03:43:45;13.50;99.90
16229;DHT22;8222;51.462;12.630;2023-08-08T03:46:12;13.60;99.90
16229;DHT22;8222;51.462;12.630;2023-08-08T03:48:39;13.70;99.90
16229;DHT22;8222;51.462;12.630;2023-08-08T03:51:04;13.70;99.90
16229;DHT22;8222;51.462;12.630;2023-08-08T03:53:31;13.60;99.90
16229;DHT22;8222;51.462;12.630;2023-08-08T03:56:02;13.60;99.90
16229;DHT22;8222;51.462;12.630;2023-08-08T03:58:30;13.70;99.90
16229;DHT22;8222;51.462;12.630;2023-08-08T04:00:55;13.70;99.90
16229;DHT22;8222;51.462;12.630;2023-08-08T04:03:23;13.70;99.90
16229;DHT22;8222;51.462;12.630;2023-08-08T04:05:52;13.90;99.90
16229;DHT22;8222;51.462;12.630;2023-08-08T04:08:25;13.90;99.90
16229;DHT22;8222;51.462;12.630;2023-08-08T04:10:50;13.80;99.90
16229;DHT22;8222;51.462;12.630;2023-08-08T04:13:17;13.90;99.90
16229;DHT22;8222;51.462;12.630;2023-08-08T04:15:42;14.10;99.90
16229;DHT22;8222;51.462;12.630;2023-08-08T04:18:15;14.10;99.90
16229;DHT22;8222;51.462;12.630;2023-08-08T04:20:40;14.10;99.90
16229;DHT22;8222;51.462;12.630;2023-08-08T04:23:09;14.20;99.90
16229;DHT22;8222;51.462;12.630;2023-08-08T04:25:34;14.30;99.90
16229;DHT22;8222;51.462;12.630;2023-08-08T04:28:03;14.40;99.90
16229;DHT22;8222;51.462;12.630;2023-08-08T04:30:33;14.40;99.90
16229;DHT22;8222;51.462;12.630;2023-08-08T04:33:04;14.50;99.90
16229;DHT22;8222;51.462;12.630;2023-08-08T04:35:36;14.50;99.90
16229;DHT22;8222;51.462;12.630;2023-08-08T04:38:13;14.60;99.90
16229;DHT22;8222;51.462;12.630;2023-08-08T04:40:49;14.60;99.90
16229;DHT22;8222;51.462;12.630;2023-08-08T04:43:14;14.70;99.90
16229;DHT22;8222;51.462;12.630;2023-08-08T04:45:40;14.70;99.90
16229;DHT22;8222;51.462;12.630;2023-08-08T04:48:12;14.80;99.90
16229;DHT22;8222;51.462;12.630;2023-08-08T04:50:37;14.80;99.90
16229;DHT22;8222;51.462;12.630;2023-08-08T04:53:09;14.90;99.90
16229;DHT22;8222;51.462;12.630;2023-08-08T04:55:45;15.00;99.90
16229;DHT22;8222;51.462;12.630;2023-08-08T04:58:15;15.00;99.90
16229;DHT22;8222;51.462;12.630;2023-08-08T05:00:41;15.10;99.90
16229;DHT22;8222;51.462;12.630;2023-08-08T05:03:09;15.40;99.90
16229;DHT22;8222;51.462;12.630;2023-08-08T05:05:41;15.50;99.90
16229;DHT22;8222;51.462;12.630;2023-08-08T05:08:13;15.50;99.90
16229;DHT22;8222;51.462;12.630;2023-08-08T05:10:46;15.40;99.90
16229;DHT22;8222;51.462;12.630;2023-08-08T05:13:15;15.40;99.90
16229;DHT22;8222;51.462;12.630;2023-08-08T05:15:46;15.40;99.90
16229;DHT22;8222;51.462;12.630;2023-08-08T05:18:16;15.40;99.90
16229;DHT22;8222;51.462;12.630;2023-08-08T05:20:44;15.40;99.90
16229;DHT22;8222;51.462;12.630;2023-08-08T05:23:13;15.40;99.90
16229;DHT22;8222;51.462;12.630;2023-08-08T05:25:38;15.50;99.90
16229;DHT22;8222;51.462;12.630;2023-08-08T05:28:09;15.60;99.90
16229;DHT22;8222;51.462;12.630;2023-08-08T05:30:35;15.60;99.90
16229;DHT22;8222;51.462;12.630;2023-08-08T05:33:01;15.60;99.90
16229;DHT22;8222;51.462;12.630;2023-08-08T05:35:31;15.60;99.90
16229;DHT22;8222;51.462;12.630;2023-08-08T05:37:57;15.50;99.90
16229;DHT22;8222;51.462;12.630;2023-08-08T05:40:27;15.60;99.90
16229;DHT22;8222;51.462;12.630;2023-08-08T05:43:05;15.50;99.90
16229;DHT22;8222;51.462;12.630;2023-08-08T05:45:31;15.50;99.90
16229;DHT22;8222;51.462;12.630;2023-08-08T05:48:00;15.60;99.90
16229;DHT22;8222;51.462;12.630;2023-08-08T05:50:27;15.60;99.90
16229;DHT22;8222;51.462;12.630;2023-08-08T05:52:55;15.60;99.90
16229;DHT22;8222;51.462;12.630;2023-08-08T05:55:20;15.50;99.90
16229;DHT22;8222;51.462;12.630;2023-08-08T05:57:51;15.50;99.90
16229;DHT22;8222;51.462;12.630;2023-08-08T06:00:17;15.50;99.90
16229;DHT22;8222;51.462;12.630;2023-08-08T06:02:45;15.60;99.90
16229;DHT22;8222;51.462;12.630;2023-08-08T06:05:16;15.60;99.90
16229;DHT22;8222;51.462;12.630;2023-08-08T06:07:43;15.60;99.90
16229;DHT22;8222;51.462;12.630;2023-08-08T06:10:17;15.60;99.90
16229;DHT22;8222;51.462;12.630;2023-08-08T06:12:42;15.70;99.90
16229;DHT22;8222;51.462;12.630;2023-08-08T06:15:11;15.80;99.90
16229;DHT22;8222;51.462;12.630;2023-08-08T06:17:39;16.00;99.90
16229;DHT22;8222;51.462;12.630;2023-08-08T06:20:05;16.20;99.90
16229;DHT22;8222;51.462;12.630;2023-08-08T06:22:32;16.20;99.90
16229;DHT22;8222;51.462;12.630;2023-08-08T06:24:58;16.30;99.90
16229;DHT22;8222;51.462;12.630;2023-08-08T06:27:23;16.40;99.90
16229;DHT22;8222;51.462;12.630;2023-08-08T06:29:49;16.50;99.90
16229;DHT22;8222;51.462;12.630;2023-08-08T06:32:14;16.70;99.90
16229;DHT22;8222;51.462;12.630;2023-08-08T06:34:42;16.90;99.90
16229;DHT22;8222;51.462;12.630;2023-08-08T06:37:08;17.00;99.90
16229;DHT22;8222;51.462;12.630;2023-08-08T06:39:34;17.00;99.90
16229;DHT22;8222;51.462;12.630;2023-08-08T06:42:00;17.00;99.90
16229;DHT22;8222;51.462;12.630;2023-08-08T06:44:32;17.10;99.90
16229;DHT22;8222;51.462;12.630;2023-08-08T06:47:05;17.40;99.90
16229;DHT22;8222;51.462;12.630;2023-08-08T06:49:36;17.40;99.90
16229;DHT22;8222;51.462;12.630;2023-08-08T06:52:05;17.40;99.90
16229;DHT22;8222;51.462;12.630;2023-08-08T06:54:32;17.40;99.90
16229;DHT22;8222;51.462;12.630;2023-08-08T06:57:05;17.50;99.90
16229;DHT22;8222;51.462;12.630;2023-08-08T06:59:33;17.60;99.90
16229;DHT22;8222;51.462;12.630;2023-08-08T07:02:01;17.50;99.90
16229;DHT22;8222;51.462;12.630;2023-08-08T07:04:27;17.60;99.90
16229;DHT22;8222;51.462;12.630;2023-08-08T07:06:55;17.50;99.90
16229;DHT22;8222;51.462;12.630;2023-08-08T07:09:27;17.80;99.90
16229;DHT22;8222;51.462;12.630;2023-08-08T07:11:52;18.00;99.90
16229;DHT22;8222;51.462;12.630;2023-08-08T07:14:18;18.10;99.90
16229;DHT22;8222;51.462;12.630;2023-08-08T07:16:44;18.10;99.90
16229;DHT22;8222;51.462;12.630;2023-08-08T07:19:10;18.10;99.90
16229;DHT22;8222;51.462;12.630;2023-08-08T07:21:38;18.00;99.90
16229;DHT22;8222;51.462;12.630;2023-08-08T07:24:08;18.20;99.90
16229;DHT22;8222;51.462;12.630;2023-08-08T07:26:35;18.20;99.90
16229;DHT22;8222;51.462;12.630;2023-08-08T07:29:00;18.40;99.90
16229;DHT22;8222;51.462;12.630;2023-08-08T07:31:33;18.40;99.90
16229;DHT22;8222;51.462;12.630;2023-08-08T07:34:02;18.30;99.90
16229;DHT22;8222;51.462;12.630;2023-08-08T07:36:33;18.20;99.90
16229;DHT22;8222;51.462;12.630;2023-08-08T07:38:59;18.10;99.90
16229;DHT22;8222;51.462;12.630;2023-08-08T07:41:30;18.10;99.90
16229;DHT22;8222;51.462;12.630;2023-08-08T07:43:58;18.00;99.90
16229;DHT22;8222;51.462;12.630;2023-08-08T07:46:23;17.90;99.90
16229;DHT22;8222;51.462;12.630;2023-08-08T07:48:52;17.80;99.90
16229;DHT22;8222;51.462;12.630;2023-08-08T07:51:17;17.80;99.90
16229;DHT22;8222;51.462;12.630;2023-08-08T07:53:45;17.70;99.90
16229;DHT22;8222;51.462;12.630;2023-08-08T07:56:11;17.60;99.90
16229;DHT22;8222;51.462;12.630;2023-08-08T07:58:36;17.80;99.90
16229;DHT22;8222;51.462;12.630;2023-08-08T08:01:02;17.90;99.90
16229;DHT22;8222;51.462;12.630;2023-08-08T08:03:28;18.00;99.90
16229;DHT22;8222;51.462;12.630;2023-08-08T08:05:56;18.20;99.90
16229;DHT22;8222;51.462;12.630;2023-08-08T08:08:24;18.30;99.90
16229;DHT22;8222;51.462;12.630;2023-08-08T08:10:52;18.30;99.90
16229;DHT22;8222;51.462;12.630;2023-08-08T08:13:20;18.50;99.90
16229;DHT22;8222;51.462;12.630;2023-08-08T08:15:46;18.60;99.90
16229;DHT22;8222;51.462;12.630;2023-08-08T08:18:21;18.50;99.90
16229;DHT22;8222;51.462;12.630;2023-08-08T08:20:49;18.60;99.90
16229;DHT22;8222;51.462;12.630;2023-08-08T08:23:15;18.60;99.90
16229;DHT22;8222;51.462;12.630;2023-08-08T08:25:41;18.50;99.90
16229;DHT22;8222;51.462;12.630;2023-08-08T08:28:12;18.30;99.90
16229;DHT22;8222;51.462;12.630;2023-08-08T08:30:40;18.30;99.90
16229;DHT22;8222;51.462;12.630;2023-08-08T08:33:09;18.30;99.90
16229;DHT22;8222;51.462;12.630;2023-08-08T08:35:35;18.40;99.90
16229;DHT22;8222;51.462;12.630;2023-08-08T08:38:01;18.30;99.90
16229;DHT22;8222;51.462;12.630;2023-08-08T08:40:28;18.10;99.90
16229;DHT22;8222;51.462;12.630;2023-08-08T08:42:55;18.00;99.90
16229;DHT22;8222;51.462;12.630;2023-08-08T08:45:24;17.80;99.90
16229;DHT22;8222;51.462;12.630;2023-08-08T08:47:54;17.80;99.90
16229;DHT22;8222;51.462;12.630;2023-08-08T08:50:27;17.70;99.90
16229;DHT22;8222;51.462;12.630;2023-08-08T08:52:56;17.60;99.90
16229;DHT22;8222;51.462;12.630;2023-08-08T08:55:24;17.50;99.90
16229;DHT22;8222;51.462;12.630;2023-08-08T08:57:53;17.50;99.90
16229;DHT22;8222;51.462;12.630;2023-08-08T09:00:19;17.50;99.90
16229;DHT22;8222;51.462;12.630;2023-08-08T09:02:48;17.50;99.90
16229;DHT22;8222;51.462;12.630;2023-08-08T09:05:15;17.50;99.90
16229;DHT22;8222;51.462;12.630;2023-08-08T09:07:49;17.60;99.90
16229;DHT22;8222;51.462;12.630;2023-08-08T09:10:18;17.70;99.90
16229;DHT22;8222;51.462;12.630;2023-08-08T09:12:46;17.90;99.90
16229;DHT22;8222;51.462;12.630;2023-08-08T09:15:14;18.00;99.90
16229;DHT22;8222;51.462;12.630;2023-08-08T09:17:43;18.10;99.90
16229;DHT22;8222;51.462;12.630;2023-08-08T09:20:13;18.10;99.90
16229;DHT22;8222;51.462;12.630;2023-08-08T09:22:41;18.10;99.90
16229;DHT22;8222;51.462;12.630;2023-08-08T09:25:09;18.10;99.90
16229;DHT22;8222;51.462;12.630;2023-08-08T09:27:35;18.10;99.90
16229;DHT22;8222;51.462;12.630;2023-08-08T09:30:01;18.40;99.90
16229;DHT22;8222;51.462;12.630;2023-08-08T09:32:31;18.40;99.90
16229;DHT22;8222;51.462;12.630;2023-08-08T09:34:59;18.40;99.90
16229;DHT22;8222;51.462;12.630;2023-08-08T09:37:27;18.40;99.90
16229;DHT22;8222;51.462;12.630;2023-08-08T09:39:57;18.40;99.90
16229;DHT22;8222;51.462;12.630;2023-08-08T09:42:43;18.70;99.90
16229;DHT22;8222;51.462;12.630;2023-08-08T09:45:09;19.00;99.90
16229;DHT22;8222;51.462;12.630;2023-08-08T09:47:37;19.30;99.90
16229;DHT22;8222;51.462;12.630;2023-08-08T09:50:06;19.50;99.90
16229;DHT22;8222;51.462;12.630;2023-08-08T09:52:33;19.80;99.90
16229;DHT22;8222;51.462;12.630;2023-08-08T09:55:02;20.20;99.90
16229;DHT22;8222;51.462;12.630;2023-08-08T09:57:30;20.60;99.90
16229;DHT22;8222;51.462;12.630;2023-08-08T10:00:00;20.90;99.90
16229;DHT22;8222;51.462;12.630;2023-08-08T10:02:27;21.20;99.90
16229;DHT22;8222;51.462;12.630;2023-08-08T10:04:57;21.50;99.90
16229;DHT22;8222;51.462;12.630;2023-08-08T10:07:25;21.30;99.90
16229;DHT22;8222;51.462;12.630;2023-08-08T10:09:58;21.10;99.90
16229;DHT22;8222;51.462;12.630;2023-08-08T10:12:26;21.00;99.90
16229;DHT22;8222;51.462;12.630;2023-08-08T10:14:57;21.10;99.90
16229;DHT22;8222;51.462;12.630;2023-08-08T10:17:25;21.30;99.90
16229;DHT22;8222;51.462;12.630;2023-08-08T10:19:55;21.40;99.90
16229;DHT22;8222;51.462;12.630;2023-08-08T10:22:24;21.50;99.90
16229;DHT22;8222;51.462;12.630;2023-08-08T10:24:56;21.80;99.90
16229;DHT22;8222;51.462;12.630;2023-08-08T10:27:35;21.80;99.90
16229;DHT22;8222;51.462;12.630;2023-08-08T10:30:08;21.70;99.90
16229;DHT22;8222;51.462;12.630;2023-08-08T10:32:45;21.70;99.90
16229;DHT22;8222;51.462;12.630;2023-08-08T10:35:16;21.80;99.90
16229;DHT22;8222;51.462;12.630;2023-08-08T10:37:54;21.80;99.90
16229;DHT22;8222;51.462;12.630;2023-08-08T10:40:20;22.00;99.90
16229;DHT22;8222;51.462;12.630;2023-08-08T10:42:46;21.90;99.90
16229;DHT22;8222;51.462;12.630;2023-08-08T10:45:13;21.70;99.90
16229;DHT22;8222;51.462;12.630;2023-08-08T10:47:40;21.80;99.90
16229;DHT22;8222;51.462;12.630;2023-08-08T10:52:33;21.40;99.90
16229;DHT22;8222;51.462;12.630;2023-08-08T10:55:03;21.60;99.90
16229;DHT22;8222;51.462;12.630;2023-08-08T10:57:30;21.90;99.90
16229;DHT22;8222;51.462;12.630;2023-08-08T11:00:16;21.90;99.90
16229;DHT22;8222;51.462;12.630;2023-08-08T11:02:44;22.20;99.90
16229;DHT22;8222;51.462;12.630;2023-08-08T11:05:14;22.40;99.90
16229;DHT22;8222;51.462;12.630;2023-08-08T11:07:41;22.40;99.90
16229;DHT22;8222;51.462;12.630;2023-08-08T11:10:08;22.40;99.90
16229;DHT22;8222;51.462;12.630;2023-08-08T11:12:37;22.20;99.90
16229;DHT22;8222;51.462;12.630;2023-08-08T11:15:03;22.00;99.90
16229;DHT22;8222;51.462;12.630;2023-08-08T11:17:31;22.20;99.90
16229;DHT22;8222;51.462;12.630;2023-08-08T11:19:57;22.20;99.90
16229;DHT22;8222;51.462;12.630;2023-08-08T11:22:26;22.30;99.90
16229;DHT22;8222;51.462;12.630;2023-08-08T11:24:55;22.60;99.90
16229;DHT22;8222;51.462;12.630;2023-08-08T11:27:24;22.50;99.90
16229;DHT22;8222;51.462;12.630;2023-08-08T11:29:52;22.70;99.90
16229;DHT22;8222;51.462;12.630;2023-08-08T11:32:20;22.80;99.90
16229;DHT22;8222;51.462;12.630;2023-08-08T11:34:50;22.80;99.90
16229;DHT22;8222;51.462;12.630;2023-08-08T11:37:16;22.70;99.90
16229;DHT22;8222;51.462;12.630;2023-08-08T11:39:45;22.90;99.90
16229;DHT22;8222;51.462;12.630;2023-08-08T11:42:11;23.10;99.90
16229;DHT22;8222;51.462;12.630;2023-08-08T11:44:37;23.20;99.90
16229;DHT22;8222;51.462;12.630;2023-08-08T11:47:05;23.20;99.90
16229;DHT22;8222;51.462;12.630;2023-08-08T11:49:41;23.30;99.90
16229;DHT22;8222;51.462;12.630;2023-08-08T11:52:08;23.20;99.90
16229;DHT22;8222;51.462;12.630;2023-08-08T11:54:37;23.20;99.90
16229;DHT22;8222;51.462;12.630;2023-08-08T11:57:05;23.20;99.90
16229;DHT22;8222;51.462;12.630;2023-08-08T11:59:33;23.20;99.90
16229;DHT22;8222;51.462;12.630;2023-08-08T12:01:59;23.30;99.90
16229;DHT22;8222;51.462;12.630;2023-08-08T12:04:27;23.20;99.80
16229;DHT22;8222;51.462;12.630;2023-08-08T12:07:02;23.30;99.90
16229;DHT22;8222;51.462;12.630;2023-08-08T12:09:32;23.40;99.90
16229;DHT22;8222;51.462;12.630;2023-08-08T12:12:03;23.30;99.90
16229;DHT22;8222;51.462;12.630;2023-08-08T12:14:30;23.20;99.90
16229;DHT22;8222;51.462;12.630;2023-08-08T12:16:55;23.00;99.90
16229;DHT22;8222;51.462;12.630;2023-08-08T12:19:27;22.90;99.90
16229;DHT22;8222;51.462;12.630;2023-08-08T12:21:54;22.50;99.90
16229;DHT22;8222;51.462;12.630;2023-08-08T12:24:20;22.10;99.90
16229;DHT22;8222;51.462;12.630;2023-08-08T12:26:48;21.40;99.90
16229;DHT22;8222;51.462;12.630;2023-08-08T12:29:14;21.20;99.90
16229;DHT22;8222;51.462;12.630;2023-08-08T12:31:39;21.10;99.90
16229;DHT22;8222;51.462;12.630;2023-08-08T12:34:05;21.20;99.90
16229;DHT22;8222;51.462;12.630;2023-08-08T12:36:31;21.50;99.90
16229;DHT22;8222;51.462;12.630;2023-08-08T12:38:59;22.10;99.90
16229;DHT22;8222;51.462;12.630;2023-08-08T12:41:25;22.40;99.90
16229;DHT22;8222;51.462;12.630;2023-08-08T12:43:51;22.90;99.90
16229;DHT22;8222;51.462;12.630;2023-08-08T12:46:17;23.00;99.90
16229;DHT22;8222;51.462;12.630;2023-08-08T12:48:43;23.20;99.90
16229;DHT22;8222;51.462;12.630;2023-08-08T12:51:10;23.20;99.90
16229;DHT22;8222;51.462;12.630;2023-08-08T12:53:36;23.40;99.90
16229;DHT22;8222;51.462;12.630;2023-08-08T12:56:04;23.70;99.90
16229;DHT22;8222;51.462;12.630;2023-08-08T12:58:30;23.50;99.90
16229;DHT22;8222;51.462;12.630;2023-08-08T13:00:55;23.40;99.90
16229;DHT22;8222;51.462;12.630;2023-08-08T13:03:25;23.70;99.90
16229;DHT22;8222;51.462;12.630;2023-08-08T13:05:51;23.70;99.90
16229;DHT22;8222;51.462;12.630;2023-08-08T13:08:17;23.80;98.40
16229;DHT22;8222;51.462;12.630;2023-08-08T13:10:43;24.10;97.40
16229;DHT22;8222;51.462;12.630;2023-08-08T13:13:09;24.00;94.20
16229;DHT22;8222;51.462;12.630;2023-08-08T13:15:37;23.90;94.30
16229;DHT22;8222;51.462;12.630;2023-08-08T13:18:05;23.70;94.10
16229;DHT22;8222;51.462;12.630;2023-08-08T13:20:31;23.60;93.80
16229;DHT22;8222;51.462;12.630;2023-08-08T13:22:56;23.40;95.00
16229;DHT22;8222;51.462;12.630;2023-08-08T13:25:22;23.10;97.90
16229;DHT22;8222;51.462;12.630;2023-08-08T13:27:48;22.90;95.90
16229;DHT22;8222;51.462;12.630;2023-08-08T13:30:13;22.50;97.50
16229;DHT22;8222;51.462;12.630;2023-08-08T13:32:42;22.40;99.90
16229;DHT22;8222;51.462;12.630;2023-08-08T13:35:10;22.20;99.90
16229;DHT22;8222;51.462;12.630;2023-08-08T13:37:35;22.10;99.90
16229;DHT22;8222;51.462;12.630;2023-08-08T13:40:04;21.90;99.90
16229;DHT22;8222;51.462;12.630;2023-08-08T13:42:30;21.90;99.90
16229;DHT22;8222;51.462;12.630;2023-08-08T13:44:57;21.90;99.90
16229;DHT22;8222;51.462;12.630;2023-08-08T13:47:26;21.90;99.90
16229;DHT22;8222;51.462;12.630;2023-08-08T13:49:54;22.00;99.90
16229;DHT22;8222;51.462;12.630;2023-08-08T13:52:20;22.00;99.80
16229;DHT22;8222;51.462;12.630;2023-08-08T13:54:46;22.00;99.90
16229;DHT22;8222;51.462;12.630;2023-08-08T13:57:11;21.70;99.90
16229;DHT22;8222;51.462;12.630;2023-08-08T13:59:41;21.60;99.90
16229;DHT22;8222;51.462;12.630;2023-08-08T14:02:07;21.60;99.90
16229;DHT22;8222;51.462;12.630;2023-08-08T14:04:35;21.50;99.90
16229;DHT22;8222;51.462;12.630;2023-08-08T14:07:01;21.50;99.90
16229;DHT22;8222;51.462;12.630;2023-08-08T14:09:26;21.40;99.90
16229;DHT22;8222;51.462;12.630;2023-08-08T14:11:55;21.40;99.90
16229;DHT22;8222;51.462;12.630;2023-08-08T14:14:21;21.60;99.90
16229;DHT22;8222;51.462;12.630;2023-08-08T14:16:46;21.80;99.90
16229;DHT22;8222;51.462;12.630;2023-08-08T14:19:12;21.80;99.90
16229;DHT22;8222;51.462;12.630;2023-08-08T14:21:38;21.90;99.90
16229;DHT22;8222;51.462;12.630;2023-08-08T14:24:04;21.80;99.90
16229;DHT22;8222;51.462;12.630;2023-08-08T14:26:30;21.80;99.90
16229;DHT22;8222;51.462;12.630;2023-08-08T14:28:56;21.80;99.90
16229;DHT22;8222;51.462;12.630;2023-08-08T14:31:25;21.70;99.90
16229;DHT22;8222;51.462;12.630;2023-08-08T14:33:53;21.40;99.90
16229;DHT22;8222;51.462;12.630;2023-08-08T14:36:21;21.20;99.90
16229;DHT22;8222;51.462;12.630;2023-08-08T14:38:47;21.10;99.90
16229;DHT22;8222;51.462;12.630;2023-08-08T14:41:15;21.00;99.90
16229;DHT22;8222;51.462;12.630;2023-08-08T14:43:41;21.00;99.90
16229;DHT22;8222;51.462;12.630;2023-08-08T14:46:06;20.80;99.90
16229;DHT22;8222;51.462;12.630;2023-08-08T14:48:37;20.60;99.90
16229;DHT22;8222;51.462;12.630;2023-08-08T14:51:03;20.50;99.90
16229;DHT22;8222;51.462;12.630;2023-08-08T14:53:33;20.60;99.90
16229;DHT22;8222;51.462;12.630;2023-08-08T14:55:59;21.00;99.90
16229;DHT22;8222;51.462;12.630;2023-08-08T14:58:25;21.20;99.90
16229;DHT22;8222;51.462;12.630;2023-08-08T15:00:51;21.50;99.90
16229;DHT22;8222;51.462;12.630;2023-08-08T15:03:19;21.70;99.90
16229;DHT22;8222;51.462;12.630;2023-08-08T15:05:47;22.10;99.90
16229;DHT22;8222;51.462;12.630;2023-08-08T15:08:14;22.30;99.90
16229;DHT22;8222;51.462;12.630;2023-08-08T15:10:42;22.40;99.90
16229;DHT22;8222;51.462;12.630;2023-08-08T15:13:08;22.40;99.90
16229;DHT22;8222;51.462;12.630;2023-08-08T15:15:33;22.30;99.90
16229;DHT22;8222;51.462;12.630;2023-08-08T15:17:59;22.70;99.90
16229;DHT22;8222;51.462;12.630;2023-08-08T15:20:25;22.60;99.90
16229;DHT22;8222;51.462;12.630;2023-08-08T15:22:55;22.50;99.90
16229;DHT22;8222;51.462;12.630;2023-08-08T15:25:21;22.00;99.90
16229;DHT22;8222;51.462;12.630;2023-08-08T15:27:46;22.40;99.90
16229;DHT22;8222;51.462;12.630;2023-08-08T15:30:12;22.30;99.90
16229;DHT22;8222;51.462;12.630;2023-08-08T15:32:40;22.30;99.90
16229;DHT22;8222;51.462;12.630;2023-08-08T15:35:08;22.10;99.90
16229;DHT22;8222;51.462;12.630;2023-08-08T15:37:34;21.80;99.90
16229;DHT22;8222;51.462;12.630;2023-08-08T15:40:00;21.80;99.90
16229;DHT22;8222;51.462;12.630;2023-08-08T15:42:28;21.70;99.90